createdAt,value
2022-08-03T00:00:40.280Z,13.13
2022-08-03T00:03:08.712Z,13.63
2022-08-03T00:05:38.209Z,22.42
2022-08-03T00:08:06.746Z,13.77
2022-08-03T00:10:36.650Z,15.05
2022-08-03T00:13:05.186Z,17.85
2022-08-03T00:15:34.064Z,14.52
2022-08-03T00:18:02.338Z,13.50
2022-08-03T00:20:30.629Z,16.30
2022-08-03T00:22:59.605Z,16.50
2022-08-03T00:25:28.291Z,15.68
2022-08-03T00:27:58.714Z,13.40
2022-08-03T00:30:30.897Z,17.38
2022-08-03T00:32:59.891Z,13.48
2022-08-03T00:35:36.883Z,13.95
2022-08-03T00:38:17.351Z,13.23
2022-08-03T00:40:46.121Z,19.67
2022-08-03T00:43:15.795Z,13.73
2022-08-03T00:45:45.024Z,16.70
2022-08-03T00:48:19.499Z,13.70
2022-08-03T00:50:58.887Z,16.77
2022-08-03T00:53:28.787Z,14.25
2022-08-03T00:55:57.457Z,17.20
2022-08-03T00:58:27.268Z,14.95
2022-08-03T01:00:56.092Z,12.73
2022-08-03T01:03:24.535Z,12.27
2022-08-03T01:06:05.877Z,13.18
2022-08-03T01:08:45.267Z,13.80
2022-08-03T01:11:20.135Z,17.23
2022-08-03T01:14:18.285Z,15.25
2022-08-03T01:16:55.996Z,14.90
2022-08-03T01:19:46.394Z,14.98
2022-08-03T01:22:34.432Z,14.35
2022-08-03T01:25:10.764Z,15.80
2022-08-03T01:27:53.083Z,15.50
2022-08-03T01:30:25.214Z,18.52
2022-08-03T01:33:02.095Z,16.77
2022-08-03T01:35:38.611Z,16.25
2022-08-03T01:38:11.805Z,14.85
2022-08-03T01:40:42.736Z,16.35
2022-08-03T01:43:14.776Z,15.10
2022-08-03T01:46:05.913Z,17.38
2022-08-03T01:48:35.160Z,14.20
2022-08-03T01:51:04.788Z,13.85
2022-08-03T01:53:36.011Z,14.82
2022-08-03T01:56:07.460Z,16.00
2022-08-03T01:58:37.086Z,16.38
2022-08-03T02:01:08.081Z,14.35
2022-08-03T02:03:59.769Z,14.82
2022-08-03T02:06:58.887Z,13.93
2022-08-03T02:09:22.609Z,12.63
2022-08-03T02:11:53.047Z,13.80
2022-08-03T02:14:23.139Z,14.57
2022-08-03T02:16:53.895Z,13.98
2022-08-03T02:19:23.498Z,13.68
2022-08-03T02:21:55.709Z,16.42
2022-08-03T02:24:26.188Z,13.25
2022-08-03T02:26:56.948Z,13.57
2022-08-03T02:29:40.151Z,12.82
2022-08-03T02:32:17.917Z,13.23
2022-08-03T02:34:49.916Z,18.25
2022-08-03T02:37:20.743Z,14.23
2022-08-03T02:39:52.082Z,12.98
2022-08-03T02:42:24.339Z,16.35
2022-08-03T02:44:56.452Z,12.20
2022-08-03T02:47:28.933Z,13.05
2022-08-03T02:50:19.837Z,13.65
2022-08-03T02:52:49.860Z,15.02
2022-08-03T02:55:20.846Z,13.70
2022-08-03T02:57:51.108Z,12.80
2022-08-03T03:00:27.917Z,14.13
2022-08-03T03:03:00.918Z,15.07
2022-08-03T03:05:55.485Z,17.67
2022-08-03T03:08:25.889Z,14.82
2022-08-03T03:10:56.822Z,15.95
2022-08-03T03:13:26.496Z,15.40
2022-08-03T03:15:55.933Z,14.15
2022-08-03T03:18:28.573Z,18.17
2022-08-03T03:20:59.006Z,17.63
2022-08-03T03:23:28.938Z,19.88
2022-08-03T03:25:58.936Z,16.83
2022-08-03T03:28:27.952Z,19.92
2022-08-03T03:30:56.415Z,16.17
2022-08-03T03:33:28.506Z,20.13
2022-08-03T03:35:58.740Z,16.40
2022-08-03T03:38:27.512Z,18.55
2022-08-03T03:40:57.063Z,19.75
2022-08-03T03:43:26.007Z,15.85
2022-08-03T03:45:55.719Z,19.80
2022-08-03T03:48:25.286Z,16.58
2022-08-03T03:50:57.247Z,13.95
2022-08-03T03:53:26.424Z,18.23
2022-08-03T03:55:59.221Z,16.75
2022-08-03T03:58:32.337Z,18.58
2022-08-03T04:01:01.387Z,17.77
2022-08-03T04:03:29.831Z,22.10
2022-08-03T04:06:16.966Z,19.80
2022-08-03T04:09:03.406Z,17.02
2022-08-03T04:11:39.352Z,16.98
2022-08-03T04:14:10.894Z,17.25
2022-08-03T04:16:44.172Z,14.90
2022-08-03T04:19:21.048Z,18.15
2022-08-03T04:21:57.469Z,18.38
2022-08-03T04:24:28.314Z,20.88
2022-08-03T04:26:58.513Z,18.10
2022-08-03T04:29:28.572Z,16.20
2022-08-03T04:31:59.786Z,17.55
2022-08-03T04:34:29.036Z,16.52
2022-08-03T04:37:01.118Z,13.90
2022-08-03T04:39:32.139Z,13.30
2022-08-03T04:42:08.604Z,14.70
2022-08-03T04:44:56.542Z,11.68
2022-08-03T04:47:28.979Z,13.73
2022-08-03T04:49:57.559Z,10.63
2022-08-03T04:52:27.305Z,16.65
2022-08-03T04:54:55.464Z,14.75
2022-08-03T04:57:23.879Z,13.02
2022-08-03T05:00:01.395Z,16.50
2022-08-03T05:02:32.052Z,15.43
2022-08-03T05:05:01.017Z,15.50
2022-08-03T05:07:36.382Z,13.90
2022-08-03T05:10:15.122Z,16.95
2022-08-03T05:12:46.763Z,20.10
2022-08-03T05:15:15.858Z,20.45
2022-08-03T05:17:44.113Z,14.75
2022-08-03T05:20:13.023Z,15.60
2022-08-03T05:22:42.804Z,16.25
2022-08-03T05:25:17.285Z,16.67
2022-08-03T05:27:49.260Z,16.13
2022-08-03T05:30:31.151Z,16.88
2022-08-03T05:33:02.729Z,16.45
2022-08-03T05:35:56.213Z,17.92
2022-08-03T05:38:28.841Z,14.45
2022-08-03T05:41:21.408Z,16.20
2022-08-03T05:43:52.298Z,17.75
2022-08-03T05:46:21.340Z,16.80
2022-08-03T05:48:49.519Z,16.67
2022-08-03T05:51:18.671Z,14.35
2022-08-03T05:53:48.555Z,15.45
2022-08-03T05:56:17.169Z,20.65
2022-08-03T05:58:47.238Z,15.88
2022-08-03T06:01:16.466Z,12.93
2022-08-03T06:03:44.947Z,17.98
2022-08-03T06:06:13.477Z,17.17
2022-08-03T06:08:42.270Z,16.80
2022-08-03T06:11:12.162Z,15.95
2022-08-03T06:13:41.188Z,18.48
2022-08-03T06:16:09.875Z,19.85
2022-08-03T06:18:38.554Z,18.13
2022-08-03T06:21:14.594Z,19.50
2022-08-03T06:23:54.157Z,17.95
2022-08-03T06:26:29.420Z,21.25
2022-08-03T06:28:57.708Z,20.80
2022-08-03T06:31:33.043Z,18.80
2022-08-03T06:34:34.392Z,13.30
2022-08-03T06:36:58.497Z,15.52
2022-08-03T06:39:30.483Z,17.38
2022-08-03T06:42:00.267Z,23.90
2022-08-03T06:44:28.469Z,11.82
2022-08-03T06:46:56.754Z,15.18
2022-08-03T06:49:25.523Z,12.65
2022-08-03T06:52:03.661Z,15.70
2022-08-03T06:54:36.380Z,16.80
2022-08-03T06:57:08.194Z,15.45
2022-08-03T07:00:10.656Z,15.90
2022-08-03T07:02:24.930Z,11.18
2022-08-03T07:04:57.654Z,16.13
2022-08-03T07:07:26.121Z,14.32
2022-08-03T07:09:56.793Z,14.40
2022-08-03T07:12:29.361Z,14.27
2022-08-03T07:15:01.286Z,15.90
2022-08-03T07:17:31.620Z,15.88
2022-08-03T07:20:00.469Z,16.52
2022-08-03T07:22:28.665Z,12.07
2022-08-03T07:24:57.557Z,14.15
2022-08-03T07:27:28.575Z,12.55
2022-08-03T07:29:59.248Z,14.07
2022-08-03T07:32:28.607Z,10.63
2022-08-03T07:35:00.492Z,14.63
2022-08-03T07:37:30.448Z,15.60
2022-08-03T07:39:59.333Z,13.57
2022-08-03T07:42:27.864Z,14.13
2022-08-03T07:44:58.413Z,14.75
2022-08-03T07:47:35.673Z,14.18
2022-08-03T07:50:08.713Z,13.05
2022-08-03T07:52:50.454Z,18.10
2022-08-03T07:55:20.436Z,10.88
2022-08-03T07:57:49.277Z,17.35
2022-08-03T08:00:20.724Z,12.20
2022-08-03T08:02:49.107Z,12.27
2022-08-03T08:05:18.203Z,18.95
2022-08-03T08:07:51.357Z,11.13
2022-08-03T08:10:20.659Z,14.68
2022-08-03T08:12:49.250Z,12.70
2022-08-03T08:15:19.038Z,16.65
2022-08-03T08:17:49.528Z,17.35
2022-08-03T08:20:27.042Z,13.65
2022-08-03T08:23:01.144Z,12.73
2022-08-03T08:25:30.832Z,11.15
2022-08-03T08:28:30.528Z,13.40
2022-08-03T08:30:53.785Z,13.70
2022-08-03T08:33:48.355Z,12.20
2022-08-03T08:36:20.632Z,10.50
2022-08-03T08:38:49.078Z,14.00
2022-08-03T08:41:17.698Z,12.45
2022-08-03T08:43:45.977Z,13.48
2022-08-03T08:46:23.942Z,12.63
2022-08-03T08:48:53.899Z,14.43
2022-08-03T08:51:23.754Z,12.07
2022-08-03T08:54:13.719Z,16.25
2022-08-03T08:56:42.183Z,10.65
2022-08-03T08:59:10.589Z,12.35
2022-08-03T09:01:40.394Z,14.40
2022-08-03T09:04:09.536Z,11.30
2022-08-03T09:06:37.733Z,15.13
2022-08-03T09:09:08.269Z,13.75
2022-08-03T09:11:53.173Z,11.30
2022-08-03T09:14:34.366Z,11.70
2022-08-03T09:17:10.102Z,12.20
2022-08-03T09:20:05.061Z,12.15
2022-08-03T09:22:34.389Z,12.55
2022-08-03T09:25:24.898Z,12.65
2022-08-03T09:27:53.472Z,13.35
2022-08-03T09:30:34.406Z,10.23
2022-08-03T09:33:06.582Z,9.98
2022-08-03T09:35:57.778Z,12.77
2022-08-03T09:38:27.617Z,9.30
2022-08-03T09:41:00.380Z,13.48
2022-08-03T09:43:29.603Z,12.55
2022-08-03T09:46:05.014Z,9.52
2022-08-03T09:48:36.858Z,11.27
2022-08-03T09:51:13.075Z,8.45
2022-08-03T09:53:59.663Z,11.93
2022-08-03T09:56:43.440Z,8.48
2022-08-03T09:59:12.623Z,9.60
2022-08-03T10:01:42.648Z,6.78
2022-08-03T10:04:16.903Z,10.55
2022-08-03T10:06:45.658Z,12.00
2022-08-03T10:09:15.750Z,10.50
2022-08-03T10:11:46.898Z,7.85
2022-08-03T10:14:19.842Z,11.98
2022-08-03T10:16:49.282Z,9.25
2022-08-03T10:19:20.909Z,11.25
2022-08-03T10:21:52.836Z,7.85
2022-08-03T10:24:26.169Z,11.57
2022-08-03T10:26:58.360Z,8.13
2022-08-03T10:29:29.566Z,10.00
2022-08-03T10:32:00.143Z,6.72
2022-08-03T10:34:42.607Z,12.20
2022-08-03T10:37:14.357Z,7.55
2022-08-03T10:39:53.527Z,8.73
2022-08-03T10:42:24.814Z,6.97
2022-08-03T10:45:05.056Z,9.27
2022-08-03T10:47:34.065Z,6.07
2022-08-03T10:50:05.230Z,9.23
2022-08-03T10:52:36.066Z,8.00
2022-08-03T10:56:03.125Z,10.30
2022-08-03T10:58:57.625Z,10.20
2022-08-03T11:01:59.144Z,10.57
2022-08-03T11:04:30.212Z,7.05
2022-08-03T11:07:23.542Z,8.25
2022-08-03T11:09:53.336Z,12.35
2022-08-03T11:12:30.822Z,10.27
2022-08-03T11:15:02.930Z,9.93
2022-08-03T11:17:31.565Z,8.48
2022-08-03T11:19:59.833Z,6.45
2022-08-03T11:22:49.876Z,4.93
2022-08-03T11:25:53.645Z,10.18
2022-08-03T11:28:28.458Z,4.63
2022-08-03T11:30:56.984Z,7.97
2022-08-03T11:33:32.106Z,10.25
2022-08-03T11:36:02.515Z,8.73
2022-08-03T11:38:32.317Z,9.40
2022-08-03T11:41:02.627Z,5.72
2022-08-03T11:43:47.541Z,8.15
2022-08-03T11:46:29.596Z,7.35
2022-08-03T11:49:10.396Z,7.13
2022-08-03T11:51:40.313Z,7.53
2022-08-03T11:54:11.382Z,9.88
2022-08-03T11:56:46.860Z,11.48
2022-08-03T11:59:20.622Z,7.55
2022-08-03T12:01:50.017Z,6.28
2022-08-03T12:04:18.370Z,7.32
2022-08-03T12:07:00.480Z,4.82
2022-08-03T12:09:36.114Z,4.90
2022-08-03T12:12:05.531Z,6.45
2022-08-03T12:14:49.417Z,6.80
2022-08-03T12:17:21.692Z,7.80
2022-08-03T12:19:50.318Z,9.73
2022-08-03T12:22:33.195Z,7.07
2022-08-03T12:25:03.193Z,6.55
2022-08-03T12:27:31.744Z,4.80
2022-08-03T12:30:01.612Z,5.05
2022-08-03T12:32:31.048Z,6.10
2022-08-03T12:35:01.587Z,6.22
2022-08-03T12:37:30.684Z,5.57
2022-08-03T12:40:07.987Z,5.80
2022-08-03T12:42:42.982Z,6.68
2022-08-03T12:45:21.615Z,6.05
2022-08-03T12:47:52.306Z,6.05
2022-08-03T12:50:28.875Z,7.85
2022-08-03T12:52:57.602Z,5.18
2022-08-03T12:55:57.635Z,5.57
2022-08-03T12:58:34.557Z,7.70
2022-08-03T13:01:04.723Z,4.78
2022-08-03T13:03:43.175Z,5.53
2022-08-03T13:06:15.920Z,3.10
2022-08-03T13:08:46.019Z,6.85
2022-08-03T13:11:55.396Z,5.25
2022-08-03T13:14:19.730Z,6.63
2022-08-03T13:16:49.390Z,3.78
2022-08-03T13:19:18.074Z,3.38
2022-08-03T13:21:53.690Z,4.13
2022-08-03T13:24:34.459Z,6.45
2022-08-03T13:28:01.464Z,6.80
2022-08-03T13:29:55.378Z,3.03
2022-08-03T13:32:24.289Z,3.47
2022-08-03T13:34:52.410Z,3.30
2022-08-03T13:37:21.332Z,2.55
2022-08-03T13:39:59.589Z,4.88
2022-08-03T13:42:30.879Z,4.68
2022-08-03T13:45:01.736Z,4.95
2022-08-03T13:47:30.120Z,4.80
2022-08-03T13:50:00.802Z,4.78
2022-08-03T13:52:32.612Z,5.13
2022-08-03T13:55:00.994Z,4.55
2022-08-03T13:58:03.232Z,3.33
2022-08-03T14:00:27.058Z,3.80
2022-08-03T14:03:09.559Z,3.78
2022-08-03T14:05:41.660Z,5.28
2022-08-03T14:08:10.091Z,4.18
2022-08-03T14:10:40.077Z,3.60
2022-08-03T14:13:08.976Z,4.38
2022-08-03T14:15:38.913Z,4.60
2022-08-03T14:18:15.799Z,6.60
2022-08-03T14:20:58.727Z,3.30
2022-08-03T14:23:28.916Z,4.57
2022-08-03T14:25:58.437Z,3.78
2022-08-03T14:28:26.780Z,3.97
2022-08-03T14:30:57.158Z,3.97
2022-08-03T14:33:25.877Z,3.10
2022-08-03T14:35:54.272Z,5.00
2022-08-03T14:38:23.654Z,3.45
2022-08-03T14:40:53.165Z,3.03
2022-08-03T14:43:21.569Z,4.28
2022-08-03T14:45:52.201Z,3.90
2022-08-03T14:48:23.436Z,3.88
2022-08-03T14:51:11.672Z,4.78
2022-08-03T14:53:40.791Z,4.10
2022-08-03T14:56:10.633Z,3.33
2022-08-03T14:58:39.434Z,5.65
2022-08-03T15:02:05.604Z,4.60
2022-08-03T15:03:58.028Z,3.50
2022-08-03T15:06:26.526Z,3.67
2022-08-03T15:09:21.087Z,3.03
2022-08-03T15:11:44.057Z,3.28
2022-08-03T15:14:13.483Z,3.80
2022-08-03T15:16:43.454Z,3.35
2022-08-03T15:20:02.796Z,3.63
2022-08-03T15:22:01.787Z,4.80
2022-08-03T15:24:30.323Z,4.55
2022-08-03T15:26:58.902Z,3.40
2022-08-03T15:30:06.832Z,5.22
2022-08-03T15:32:15.937Z,5.90
2022-08-03T15:34:50.689Z,3.45
2022-08-03T15:37:20.700Z,3.92
2022-08-03T15:39:59.073Z,3.55
2022-08-03T15:42:29.541Z,3.58
2022-08-03T15:44:58.170Z,4.43
2022-08-03T15:47:26.513Z,4.03
2022-08-03T15:49:56.863Z,3.92
2022-08-03T15:52:25.228Z,3.88
2022-08-03T15:54:53.481Z,5.18
2022-08-03T15:57:22.644Z,4.07
2022-08-03T15:59:51.842Z,5.50
2022-08-03T16:02:20.265Z,3.72
2022-08-03T16:04:48.785Z,3.83
2022-08-03T16:07:38.391Z,3.65
2022-08-03T16:10:07.640Z,3.15
2022-08-03T16:12:36.006Z,3.70
2022-08-03T16:15:04.830Z,5.15
2022-08-03T16:17:33.481Z,6.68
2022-08-03T16:20:03.353Z,5.60
2022-08-03T16:22:43.047Z,6.18
2022-08-03T16:25:16.011Z,5.25
2022-08-03T16:28:00.303Z,6.43
2022-08-03T16:30:33.874Z,4.88
2022-08-03T16:33:02.657Z,6.15
2022-08-03T16:35:31.385Z,4.45
2022-08-03T16:38:04.353Z,5.03
2022-08-03T16:40:36.032Z,7.00
2022-08-03T16:43:18.284Z,5.13
2022-08-03T16:45:48.030Z,4.38
2022-08-03T16:48:16.742Z,6.75
2022-08-03T16:50:45.375Z,5.78
2022-08-03T16:53:17.064Z,4.40
2022-08-03T16:55:53.261Z,5.55
2022-08-03T16:58:34.953Z,3.85
2022-08-03T17:01:22.283Z,4.70
2022-08-03T17:04:01.272Z,7.05
2022-08-03T17:06:35.810Z,4.20
2022-08-03T17:09:08.739Z,5.45
2022-08-03T17:11:47.512Z,4.32
2022-08-03T17:14:21.873Z,3.70
2022-08-03T17:16:53.901Z,4.22
2022-08-03T17:19:24.879Z,4.25
2022-08-03T17:22:00.231Z,5.85
2022-08-03T17:24:34.312Z,6.25
2022-08-03T17:27:08.996Z,5.35
2022-08-03T17:29:49.416Z,6.18
2022-08-03T17:32:21.381Z,4.43
2022-08-03T17:34:50.401Z,5.20
2022-08-03T17:37:50.598Z,5.05
2022-08-03T17:40:17.947Z,4.15
2022-08-03T17:42:50.706Z,4.90
2022-08-03T17:45:20.797Z,5.63
2022-08-03T17:47:57.437Z,8.90
2022-08-03T17:50:35.534Z,7.15
2022-08-03T17:53:15.355Z,5.57
2022-08-03T17:56:38.548Z,6.80
2022-08-03T17:59:08.448Z,6.13
2022-08-03T18:02:13.215Z,12.50
2022-08-03T18:05:00.578Z,21.88
2022-08-03T18:07:40.998Z,20.33
2022-08-03T18:10:11.297Z,16.80
2022-08-03T18:12:52.243Z,11.35
2022-08-03T18:15:26.321Z,14.40
2022-08-03T18:18:02.253Z,16.65
2022-08-03T18:20:41.033Z,17.08
2022-08-03T18:23:24.801Z,18.95
2022-08-03T18:26:06.750Z,17.83
2022-08-03T18:28:38.389Z,18.00
2022-08-03T18:31:07.676Z,21.55
2022-08-03T18:34:18.285Z,26.00
2022-08-03T18:36:30.327Z,25.77
2022-08-03T18:41:49.143Z,18.67
2022-08-03T18:47:50.559Z,17.35
2022-08-03T18:50:30.598Z,13.43
2022-08-03T18:53:16.289Z,14.40
2022-08-03T18:56:01.362Z,14.05
2022-08-03T18:58:38.808Z,11.35
2022-08-03T19:01:57.681Z,16.90
2022-08-03T19:04:10.620Z,13.75
2022-08-03T19:06:43.494Z,11.95
2022-08-03T19:09:23.874Z,11.15
2022-08-03T19:12:14.534Z,13.07
2022-08-03T19:14:57.357Z,22.20
2022-08-03T19:17:29.680Z,13.90
2022-08-03T19:19:59.476Z,15.15
2022-08-03T19:22:30.651Z,10.40
2022-08-03T19:25:02.020Z,8.18
2022-08-03T19:27:32.182Z,10.48
2022-08-03T19:32:53.062Z,12.27
2022-08-03T19:35:51.283Z,10.10
2022-08-03T19:38:10.978Z,12.00
2022-08-03T19:40:45.297Z,13.88
2022-08-03T19:43:23.212Z,11.77
2022-08-03T19:46:06.255Z,10.52
2022-08-03T19:48:39.253Z,12.85
2022-08-03T19:51:12.381Z,15.88
2022-08-03T19:53:44.953Z,21.45
2022-08-03T19:56:16.131Z,19.67
2022-08-03T19:58:45.306Z,12.65
2022-08-03T20:01:21.949Z,12.82
2022-08-03T20:03:53.137Z,10.57
2022-08-03T20:06:23.742Z,11.20
2022-08-03T20:08:52.742Z,13.20
2022-08-03T20:11:28.470Z,11.15
2022-08-03T20:13:59.160Z,11.98
2022-08-03T20:16:27.628Z,12.52
2022-08-03T20:18:57.212Z,16.48
2022-08-03T20:21:32.037Z,15.70
2022-08-03T20:24:24.449Z,14.48
2022-08-03T20:26:55.224Z,21.60
2022-08-03T20:30:05.313Z,19.05
2022-08-03T20:32:24.655Z,23.77
2022-08-03T20:34:54.476Z,37.03
2022-08-03T20:37:24.169Z,23.45
2022-08-03T20:39:54.304Z,28.55
2022-08-03T20:42:23.007Z,22.60
2022-08-03T20:45:04.664Z,26.25
2022-08-03T20:47:36.040Z,26.70
2022-08-03T20:50:07.573Z,26.95
2022-08-03T20:52:43.967Z,38.40
2022-08-03T20:55:20.113Z,24.27
2022-08-03T20:57:49.107Z,29.98
2022-08-03T21:00:21.975Z,23.50
2022-08-03T21:02:50.413Z,17.75
2022-08-03T21:05:21.214Z,20.02
2022-08-03T21:08:10.964Z,22.45
2022-08-03T21:10:42.150Z,30.45
2022-08-03T21:13:02.300Z,11.95
2022-08-03T21:13:05.681Z,20.30
2022-08-03T21:13:05.868Z,18.77
2022-08-03T21:13:18.441Z,31.20
2022-08-03T21:16:03.304Z,22.85
2022-08-03T21:18:45.787Z,36.13
2022-08-03T21:21:17.550Z,40.88
2022-08-03T21:23:49.825Z,40.47
2022-08-03T21:26:19.414Z,65.28
2022-08-03T21:28:49.270Z,42.83
2022-08-03T21:31:24.671Z,25.83
2022-08-03T21:33:56.579Z,23.50
2022-08-03T21:36:27.616Z,25.38
2022-08-03T21:38:57.481Z,28.60
2022-08-03T21:41:27.947Z,22.35
2022-08-03T21:43:56.627Z,20.95
2022-08-03T21:46:26.836Z,25.73
2022-08-03T21:50:04.835Z,37.38
2022-08-03T21:51:51.041Z,22.35
2022-08-03T21:54:21.009Z,20.52
2022-08-03T21:56:51.982Z,43.85
2022-08-03T21:59:22.445Z,36.05
2022-08-03T22:01:55.350Z,32.42
2022-08-03T22:04:50.723Z,34.25
2022-08-03T22:07:19.200Z,24.77
2022-08-03T22:09:50.913Z,18.40
2022-08-03T22:12:24.837Z,33.60
2022-08-03T22:15:00.801Z,29.90
2022-08-03T22:17:54.983Z,49.00
2022-08-03T22:20:21.617Z,45.58
2022-08-03T22:22:56.664Z,32.33
2022-08-03T22:25:28.811Z,38.05
2022-08-03T22:27:59.076Z,39.17
2022-08-03T22:30:27.656Z,35.78
2022-08-03T22:32:57.542Z,37.67
2022-08-03T22:35:28.388Z,58.38
2022-08-03T22:38:00.095Z,30.80
2022-08-03T22:40:29.088Z,51.75
2022-08-03T22:42:57.761Z,32.88
2022-08-03T22:46:07.189Z,22.63
2022-08-03T22:48:17.797Z,32.60
2022-08-03T22:50:47.244Z,24.42
2022-08-03T22:53:22.185Z,23.50
2022-08-03T22:55:51.295Z,34.33
2022-08-03T22:58:20.812Z,24.63
2022-08-03T23:00:55.237Z,20.42
2022-08-03T23:03:58.491Z,24.58
2022-08-03T23:06:19.399Z,17.05
2022-08-03T23:08:51.318Z,18.73
2022-08-03T23:11:22.270Z,15.88
2022-08-03T23:13:54.505Z,18.35
2022-08-03T23:16:28.592Z,19.35
2022-08-03T23:18:59.265Z,23.58
2022-08-03T23:21:53.814Z,21.38
2022-08-03T23:24:29.807Z,30.65
2022-08-03T23:26:59.033Z,22.23
2022-08-03T23:29:29.821Z,20.52
2022-08-03T23:31:59.365Z,19.77
2022-08-03T23:34:47.199Z,20.23
2022-08-03T23:37:16.173Z,25.15
2022-08-03T23:39:48.959Z,26.73
2022-08-03T23:42:19.877Z,23.25
2022-08-03T23:44:48.206Z,14.30
2022-08-03T23:47:16.517Z,22.55
2022-08-03T23:49:45.562Z,20.67
2022-08-03T23:52:20.135Z,23.25
2022-08-03T23:55:01.463Z,19.27
2022-08-03T23:57:37.938Z,16.50
